createdAt,value
2022-12-28T00:05:38.346Z,101714.38
2022-12-28T00:13:13.608Z,101705.94
2022-12-28T00:20:57.436Z,101693.25
2022-12-28T00:28:32.740Z,101686.66
2022-12-28T00:36:07.547Z,101701.69
2022-12-28T00:43:42.742Z,101686.06
2022-12-28T00:51:18.515Z,101672.94
2022-12-28T00:58:57.672Z,101682.91
2022-12-28T01:06:32.068Z,101671.53
2022-12-28T01:14:07.333Z,101661.75
2022-12-28T01:21:41.436Z,101658.41
2022-12-28T01:29:16.733Z,101652.44
2022-12-28T01:36:50.637Z,101637.31
2022-12-28T01:44:44.530Z,101627.47
2022-12-28T01:52:23.432Z,101608.75
2022-12-28T02:00:03.017Z,101598.81
2022-12-28T02:07:46.149Z,101577.25
2022-12-28T02:15:23.355Z,101562.91
2022-12-28T02:23:22.086Z,101539.59
2022-12-28T02:31:04.425Z,101526.28
2022-12-28T02:38:46.382Z,101511.03
2022-12-28T02:46:41.855Z,101493.28
2022-12-28T02:54:49.381Z,101487.75
2022-12-28T03:02:49.982Z,101471.72
2022-12-28T03:10:30.656Z,101452.06
2022-12-28T03:18:27.960Z,101425.66
2022-12-28T03:26:21.677Z,101415.75
2022-12-28T03:34:07.040Z,101415.75
2022-12-28T03:41:47.603Z,101388.25
2022-12-28T03:49:24.134Z,101362.75
2022-12-28T03:56:57.917Z,101364.56
2022-12-28T04:04:33.181Z,101353.84
2022-12-28T04:12:08.174Z,101333.53
2022-12-28T04:19:43.510Z,101324.53
2022-12-28T04:27:17.391Z,101315.66
2022-12-28T04:34:52.718Z,101297.97
2022-12-28T04:42:27.289Z,101296.16
2022-12-28T04:50:02.496Z,101295.09
2022-12-28T04:57:36.352Z,101286.13
2022-12-28T05:05:12.131Z,101290.41
2022-12-28T05:12:46.417Z,101282.50
2022-12-28T05:20:21.957Z,101280.84
2022-12-28T05:27:56.385Z,101274.81
2022-12-28T05:35:31.652Z,101261.69
2022-12-28T05:43:05.502Z,101252.97
2022-12-28T05:50:41.203Z,101233.91
2022-12-28T05:58:15.044Z,101235.88
2022-12-28T06:05:50.720Z,101215.81
2022-12-28T06:13:25.240Z,101208.16
2022-12-28T06:21:04.271Z,101188.28
2022-12-28T06:28:39.089Z,101180.56
2022-12-28T06:36:19.918Z,101175.50
2022-12-28T06:43:54.766Z,101172.16
2022-12-28T06:51:32.036Z,101154.72
2022-12-28T06:59:06.850Z,101144.22
2022-12-28T07:06:44.638Z,101131.84
2022-12-28T07:14:18.983Z,101108.00
2022-12-28T07:21:54.283Z,101110.84
2022-12-28T07:29:28.161Z,101096.78
2022-12-28T07:37:03.348Z,101085.44
2022-12-28T07:44:38.388Z,101066.59
2022-12-28T07:52:14.408Z,101067.75
2022-12-28T07:59:48.305Z,101064.53
2022-12-28T08:07:24.007Z,101067.38
2022-12-28T08:15:01.733Z,101061.31
2022-12-28T08:22:37.077Z,101041.19
2022-12-28T08:30:12.783Z,101037.66
2022-12-28T08:37:48.151Z,101018.50
2022-12-28T08:45:21.992Z,101017.06
2022-12-28T08:52:57.319Z,101016.63
2022-12-28T09:00:31.223Z,101002.38
2022-12-28T09:08:07.283Z,100993.81
2022-12-28T09:15:41.666Z,100989.03
2022-12-28T09:23:16.971Z,100983.91
2022-12-28T09:30:50.945Z,100973.81
2022-12-28T09:38:26.506Z,100957.44
2022-12-28T09:46:00.520Z,100956.03
2022-12-28T09:53:37.244Z,100936.75
2022-12-28T10:01:15.463Z,100943.31
2022-12-28T10:08:54.298Z,100929.69
2022-12-28T10:16:33.108Z,100912.59
2022-12-28T10:32:06.535Z,100907.28
2022-12-28T10:39:49.055Z,100893.28
2022-12-28T10:47:31.658Z,100877.78
2022-12-28T10:55:28.448Z,100864.72
2022-12-28T11:03:18.940Z,100863.16
2022-12-28T11:10:58.266Z,100855.47
2022-12-28T11:18:37.837Z,100860.44
2022-12-28T11:26:14.134Z,100837.06
2022-12-28T11:33:52.081Z,100840.38
2022-12-28T11:42:10.406Z,100828.09
2022-12-28T11:49:40.486Z,100830.16
2022-12-28T11:57:35.007Z,100824.22
2022-12-28T12:05:41.948Z,100820.03
2022-12-28T12:13:44.769Z,100811.34
2022-12-28T12:21:31.916Z,100806.22
2022-12-28T12:29:15.250Z,100794.22
2022-12-28T12:37:18.924Z,100785.72
2022-12-28T12:44:58.851Z,100779.84
2022-12-28T12:52:42.729Z,100774.66
2022-12-28T13:00:19.956Z,100762.41
2022-12-28T13:07:56.699Z,100758.22
2022-12-28T13:15:33.006Z,100750.25
2022-12-28T13:23:07.748Z,100756.59
2022-12-28T13:30:43.066Z,100753.13
2022-12-28T13:38:18.612Z,100748.53
2022-12-28T13:45:56.133Z,100750.31
2022-12-28T13:53:32.261Z,100753.94
2022-12-28T14:01:14.476Z,100767.31
2022-12-28T14:08:49.057Z,100766.22
2022-12-28T14:16:26.035Z,100759.69
2022-12-28T14:24:05.651Z,100759.44
2022-12-28T14:31:41.569Z,100763.66
2022-12-28T14:39:26.606Z,100757.38
2022-12-28T14:47:02.426Z,100767.22
2022-12-28T14:54:45.492Z,100770.13
2022-12-28T15:02:41.355Z,100768.34
2022-12-28T15:10:17.366Z,100755.59
2022-12-28T15:17:52.653Z,100751.00
2022-12-28T15:25:26.528Z,100756.31
2022-12-28T15:33:01.995Z,100750.75
2022-12-28T15:40:36.066Z,100746.28
2022-12-28T15:48:11.785Z,100748.06
2022-12-28T15:55:45.806Z,100749.88
2022-12-28T16:03:21.289Z,100741.34
2022-12-28T16:10:55.371Z,100742.22
2022-12-28T16:18:30.555Z,100746.50
2022-12-28T16:26:05.221Z,100734.03
2022-12-28T16:33:40.941Z,100733.38
2022-12-28T16:41:14.825Z,100736.16
2022-12-28T16:48:50.199Z,100737.13
2022-12-28T16:56:24.388Z,100732.72
2022-12-28T17:04:04.093Z,100736.50
2022-12-28T17:11:38.517Z,100746.09
2022-12-28T17:19:13.906Z,100731.72
2022-12-28T17:26:48.415Z,100724.50
2022-12-28T17:34:23.768Z,100718.25
2022-12-28T17:41:57.732Z,100718.41
2022-12-28T17:49:33.082Z,100701.63
2022-12-28T17:57:07.001Z,100698.13
2022-12-28T18:04:42.415Z,100682.16
2022-12-28T18:12:18.273Z,100681.34
2022-12-28T18:19:55.990Z,100677.84
2022-12-28T18:27:29.979Z,100672.63
2022-12-28T18:35:05.921Z,100676.06
2022-12-28T18:42:44.085Z,100670.69
2022-12-28T18:50:19.458Z,100667.13
2022-12-28T18:57:53.401Z,100664.34
2022-12-28T19:05:28.638Z,100668.72
2022-12-28T19:13:02.451Z,100670.28
2022-12-28T19:20:37.860Z,100677.19
2022-12-28T19:28:12.408Z,100665.50
2022-12-28T19:35:48.223Z,100652.09
2022-12-28T19:43:22.288Z,100611.25
2022-12-28T19:50:57.827Z,100580.97
2022-12-28T19:58:33.576Z,100565.75
2022-12-28T20:06:11.638Z,100578.03
2022-12-28T20:13:50.211Z,100609.84
2022-12-28T20:21:27.360Z,100600.03
2022-12-28T20:29:04.222Z,100590.13
2022-12-28T20:36:39.405Z,100566.94
2022-12-28T20:44:15.385Z,100555.56
2022-12-28T20:51:50.966Z,100542.16
2022-12-28T20:59:26.204Z,100547.63
2022-12-28T21:07:01.666Z,100524.63
2022-12-28T21:14:35.588Z,100504.41
2022-12-28T21:22:12.107Z,100485.16
2022-12-28T21:29:46.337Z,100471.00
2022-12-28T21:37:36.525Z,100457.84
2022-12-28T21:45:11.544Z,100446.50
2022-12-28T21:52:47.031Z,100429.69
2022-12-28T22:00:39.279Z,100404.25
2022-12-28T22:08:32.411Z,100388.13
2022-12-28T22:16:06.571Z,100381.94
2022-12-28T22:23:41.852Z,100365.22
2022-12-28T22:31:16.149Z,100358.34
2022-12-28T22:38:51.579Z,100360.97
2022-12-28T22:46:25.647Z,100377.78
2022-12-28T22:54:01.168Z,100342.44
2022-12-28T23:01:35.246Z,100350.31
2022-12-28T23:09:10.757Z,100337.97
2022-12-28T23:16:44.763Z,100321.09
2022-12-28T23:24:48.808Z,100302.50
2022-12-28T23:32:24.253Z,100306.16
2022-12-28T23:39:59.543Z,100284.03
2022-12-28T23:47:33.845Z,100276.06
2022-12-28T23:55:13.259Z,100265.34
